Time;durP1;ratioP1;P1;durP2;ratioP2;P2;SDS_P1;SDS_P2;PMS_P1;PMS_P2;Temp;Humidity;BMP_temperature;BMP_pressure;BME280_temperature;BME280_humidity;BME280_pressure;Samples;Min_cycle;Max_cycle;Signal;HPM_P1;HPM_P2
2023/07/22 00:02:23;;;;;;;4.78;2.42;;;;;;;16.30;74.81;96264.19;5102494;27;20050;-75
2023/07/22 00:04:50;;;;;;;10.18;2.50;;;;;;;16.10;76.15;96264.09;5104187;27;20047;-74
2023/07/22 00:07:16;;;;;;;6.15;2.60;;;;;;;16.00;76.62;96263.84;5093502;28;20040;-74
2023/07/22 00:09:43;;;;;;;4.47;2.55;;;;;;;15.97;76.84;96264.53;5099693;28;20050;-74
2023/07/22 00:12:11;;;;;;;5.22;2.72;;;;;;;15.95;77.06;96264.13;5110362;27;20051;-74
2023/07/22 00:14:41;;;;;;;7.90;3.05;;;;;;;15.88;77.40;96257.28;5099381;27;20046;-74
2023/07/22 00:17:09;;;;;;;7.25;2.83;;;;;;;15.74;77.75;96262.41;5105942;27;20062;-74
2023/07/22 00:19:35;;;;;;;5.13;2.78;;;;;;;15.64;78.22;96262.94;5106681;28;20592;-74
2023/07/22 00:22:02;;;;;;;3.78;2.70;;;;;;;15.62;78.01;96270.72;5106354;27;20040;-75
2023/07/22 00:24:28;;;;;;;8.18;2.92;;;;;;;15.54;78.02;96272.47;5100993;28;20043;-74
2023/07/22 00:26:55;;;;;;;4.88;2.53;;;;;;;15.34;78.46;96257.81;5093898;28;20055;-74
2023/07/22 00:29:21;;;;;;;5.65;2.70;;;;;;;15.12;79.55;96255.63;5105393;27;20054;-74
2023/07/22 00:31:50;;;;;;;3.80;2.50;;;;;;;15.24;78.97;96255.56;5112611;27;20040;-74
2023/07/22 00:34:17;;;;;;;5.60;2.50;;;;;;;15.23;79.12;96256.72;5111657;27;20047;-74
2023/07/22 00:36:44;;;;;;;4.25;2.35;;;;;;;15.28;78.58;96259.22;5112730;27;20039;-74
2023/07/22 00:39:11;;;;;;;3.90;2.45;;;;;;;15.43;78.70;96256.88;5102149;27;20517;-75
2023/07/22 00:41:37;;;;;;;4.40;2.28;;;;;;;15.35;78.11;96253.16;5089563;28;20132;-74
2023/07/22 00:44:04;;;;;;;5.22;2.50;;;;;;;15.20;78.37;96254.69;5089885;28;20051;-75
2023/07/22 00:46:31;;;;;;;5.93;2.60;;;;;;;14.95;79.44;96250.47;5090248;28;20036;-74
2023/07/22 00:48:59;;;;;;;3.28;2.30;;;;;;;14.93;79.81;96250.00;5100709;28;20036;-74
2023/07/22 00:51:25;;;;;;;4.28;2.30;;;;;;;15.07;79.07;96251.19;5108916;27;20042;-73
2023/07/22 00:53:52;;;;;;;7.32;3.13;;;;;;;15.14;78.95;96250.63;5090080;28;20066;-74
2023/07/22 00:56:18;;;;;;;4.25;2.63;;;;;;;15.21;78.53;96239.03;5097491;28;20040;-74
2023/07/22 00:58:45;;;;;;;4.32;2.53;;;;;;;15.32;79.10;96234.63;5095442;28;20055;-74
2023/07/22 01:01:11;;;;;;;3.40;2.30;;;;;;;15.43;79.30;96235.72;5098805;27;20079;-74
2023/07/22 01:03:38;;;;;;;5.40;2.53;;;;;;;15.47;79.69;96238.56;5110784;27;20499;-74
2023/07/22 01:06:06;;;;;;;7.20;3.22;;;;;;;15.33;78.24;96244.44;5106358;27;20052;-73
2023/07/22 01:08:33;;;;;;;4.80;2.97;;;;;;;15.30;78.01;96236.94;5108837;27;20047;-73
2023/07/22 01:10:59;;;;;;;4.88;2.60;;;;;;;15.35;78.10;96240.22;5099498;28;20126;-74
2023/07/22 01:13:26;;;;;;;4.10;2.50;;;;;;;15.37;77.73;96235.16;5111754;27;20062;-74
2023/07/22 01:15:53;;;;;;;4.50;2.50;;;;;;;15.42;77.71;96233.31;5098986;28;20036;-73
2023/07/22 01:18:19;;;;;;;4.38;2.55;;;;;;;15.47;77.90;96235.81;5100376;27;20044;-74
2023/07/22 01:20:46;;;;;;;5.03;2.58;;;;;;;15.50;78.42;96233.13;5104344;27;20044;-73
2023/07/22 01:23:15;;;;;;;5.68;2.50;;;;;;;15.54;78.46;96225.81;5103556;28;20510;-74
2023/07/22 01:25:41;;;;;;;5.13;2.80;;;;;;;15.55;78.09;96227.41;5101706;28;20050;-74
2023/07/22 01:28:11;;;;;;;4.60;2.70;;;;;;;15.54;78.51;96230.50;5092489;28;20076;-73
2023/07/22 01:30:38;;;;;;;4.38;2.70;;;;;;;15.56;78.43;96228.22;5092636;28;20062;-73
2023/07/22 01:33:04;;;;;;;6.03;2.45;;;;;;;15.62;79.00;96232.28;5093021;28;20043;-73
2023/07/22 01:35:31;;;;;;;4.07;2.45;;;;;;;15.67;78.86;96229.31;5093492;28;20376;-73
2023/07/22 01:37:57;;;;;;;6.75;2.40;;;;;;;15.64;78.04;96230.00;5090285;28;20059;-73
2023/07/22 01:40:25;;;;;;;4.40;2.10;;;;;;;15.65;78.20;96226.09;5090965;28;20055;-73
2023/07/22 01:42:52;;;;;;;5.70;2.42;;;;;;;15.63;78.15;96228.41;5104757;28;20130;-73
2023/07/22 01:45:19;;;;;;;3.85;2.47;;;;;;;15.63;78.51;96225.66;5105540;28;20423;-74
2023/07/22 01:47:45;;;;;;;4.40;2.35;;;;;;;15.36;78.35;96224.56;5090442;28;20040;-74
2023/07/22 01:50:12;;;;;;;5.10;2.38;;;;;;;15.18;79.09;96228.75;5088587;28;20396;-74
2023/07/22 01:52:39;;;;;;;4.32;2.80;;;;;;;15.06;79.85;96226.88;5106407;27;20047;-76
2023/07/22 01:55:10;;;;;;;5.53;2.70;;;;;;;15.11;79.79;96240.34;5107787;27;20410;-74
2023/07/22 01:57:39;;;;;;;3.67;2.33;;;;;;;15.22;79.62;96227.72;5111934;27;20089;-74
2023/07/22 02:00:10;;;;;;;4.13;2.40;;;;;;;15.28;79.42;96229.03;5104592;27;20511;-74
2023/07/22 02:02:37;;;;;;;5.10;2.55;;;;;;;15.23;79.43;96231.25;5096640;28;20048;-73
2023/07/22 02:05:04;;;;;;;9.98;3.65;;;;;;;15.18;79.36;96229.56;5101119;28;20043;-74
2023/07/22 02:07:31;;;;;;;4.93;3.00;;;;;;;15.24;79.12;96238.31;5112063;27;20096;-74
2023/07/22 02:09:58;;;;;;;7.63;3.63;;;;;;;15.06;79.45;96237.84;5109200;27;20040;-74
2023/07/22 02:12:24;;;;;;;5.65;3.60;;;;;;;14.88;81.00;96240.91;5092393;28;20047;-74
2023/07/22 02:14:52;;;;;;;6.28;3.15;;;;;;;14.99;80.81;96235.72;5093879;28;20503;-74
2023/07/22 02:17:20;;;;;;;4.75;2.65;;;;;;;15.12;80.63;96247.41;5092312;28;20059;-74
2023/07/22 02:19:46;;;;;;;5.68;2.90;;;;;;;15.17;80.30;96244.41;5103868;27;20137;-74
2023/07/22 02:22:13;;;;;;;6.05;3.00;;;;;;;15.23;79.87;96237.53;5112559;27;20040;-74
2023/07/22 02:24:39;;;;;;;4.68;2.58;;;;;;;15.21;79.37;96245.31;5102270;28;20047;-74
2023/07/22 02:27:08;;;;;;;6.28;2.88;;;;;;;15.19;79.67;96236.66;5099034;28;20506;-74
2023/07/22 02:29:35;;;;;;;5.68;3.00;;;;;;;15.18;79.58;96236.97;5112501;27;20050;-74
2023/07/22 02:32:03;;;;;;;6.28;2.95;;;;;;;15.16;80.08;96242.84;5108213;27;20052;-74
2023/07/22 02:34:30;;;;;;;5.82;2.70;;;;;;;15.13;80.35;96238.03;5092933;28;20040;-74
2023/07/22 02:36:56;;;;;;;3.75;2.53;;;;;;;15.14;80.00;96242.41;5092432;28;20068;-74
2023/07/22 02:39:22;;;;;;;6.72;2.78;;;;;;;15.07;80.37;96250.41;5092255;28;20047;-74
2023/07/22 02:41:49;;;;;;;4.35;3.00;;;;;;;14.80;80.78;96252.78;5103417;27;20058;-74
2023/07/22 02:44:16;;;;;;;6.00;3.15;;;;;;;14.73;81.86;96251.78;5097817;27;20048;-74
2023/07/22 02:46:42;;;;;;;6.70;2.75;;;;;;;14.80;81.92;96252.78;5102874;28;20414;-74
2023/07/22 02:49:10;;;;;;;5.85;2.50;;;;;;;14.88;81.72;96249.13;5104646;27;20054;-74
2023/07/22 02:51:37;;;;;;;4.80;2.90;;;;;;;14.99;81.98;96245.88;5105629;27;20453;-74
2023/07/22 02:54:04;;;;;;;4.72;2.80;;;;;;;15.01;81.73;96244.38;5108960;27;20044;-75
2023/07/22 02:56:31;;;;;;;6.15;3.10;;;;;;;15.04;81.29;96262.09;5102237;27;20040;-74
2023/07/22 02:58:57;;;;;;;4.88;2.60;;;;;;;15.04;81.50;96253.84;5110644;27;20046;-75
2023/07/22 03:01:24;;;;;;;5.93;3.30;;;;;;;15.06;81.21;96248.81;5103465;28;20377;-75
2023/07/22 03:03:51;;;;;;;5.35;3.00;;;;;;;15.04;81.11;96256.59;5099953;28;20047;-74
2023/07/22 03:06:19;;;;;;;4.40;2.85;;;;;;;14.99;81.58;96254.91;5099198;28;20055;-76
2023/07/22 03:08:45;;;;;;;3.92;2.83;;;;;;;14.99;81.71;96265.06;5113747;27;20036;-74
2023/07/22 03:11:12;;;;;;;4.07;2.80;;;;;;;14.99;81.65;96259.59;5105438;27;20039;-74
2023/07/22 03:13:38;;;;;;;7.68;3.30;;;;;;;14.94;82.18;96260.63;5094037;27;20501;-74
2023/07/22 03:16:05;;;;;;;8.07;3.45;;;;;;;14.54;84.20;96255.94;5091334;28;20050;-74
2023/07/22 03:18:32;;;;;;;8.30;3.47;;;;;;;14.57;84.38;96265.44;5091962;28;20062;-75
2023/07/22 03:20:58;;;;;;;7.65;3.28;;;;;;;14.63;83.97;96264.03;5103475;27;20063;-74
2023/07/22 03:23:26;;;;;;;5.85;3.67;;;;;;;14.54;84.55;96263.38;5111439;27;20048;-74
2023/07/22 03:25:53;;;;;;;4.50;2.80;;;;;;;14.68;84.48;96255.56;5111161;27;20044;-74
2023/07/22 03:28:19;;;;;;;5.30;2.65;;;;;;;14.79;84.65;96258.63;5111208;27;20434;-76
2023/07/22 03:30:46;;;;;;;5.78;3.42;;;;;;;14.76;84.06;96268.31;5103171;27;20048;-74
2023/07/22 03:33:12;;;;;;;6.97;3.40;;;;;;;14.65;83.94;96263.69;5101418;28;20502;-74
2023/07/22 03:35:39;;;;;;;5.97;3.13;;;;;;;14.71;83.68;96260.34;5108159;27;20046;-73
2023/07/22 03:38:05;;;;;;;4.95;3.13;;;;;;;14.79;84.08;96258.63;5095412;28;20050;-75
2023/07/22 03:40:33;;;;;;;4.80;3.30;;;;;;;14.81;83.80;96257.13;5094891;28;20465;-74
2023/07/22 03:43:00;;;;;;;6.90;3.20;;;;;;;14.78;83.55;96266.06;5099918;28;20050;-74
2023/07/22 03:45:27;;;;;;;6.80;3.45;;;;;;;14.57;83.78;96259.94;5091014;28;20104;-74
2023/07/22 03:47:57;;;;;;;6.35;4.00;;;;;;;14.30;85.70;96255.94;5093828;28;20046;-74
2023/07/22 03:50:24;;;;;;;7.15;3.28;;;;;;;14.46;85.44;96264.25;5110160;27;20047;-74
2023/07/22 03:52:50;;;;;;;5.40;3.60;;;;;;;14.57;85.35;96265.44;5110301;27;20499;-74
2023/07/22 03:55:19;;;;;;;6.75;3.72;;;;;;;14.64;84.42;96273.84;5111408;27;20517;-74
2023/07/22 03:57:47;;;;;;;4.82;2.90;;;;;;;14.61;84.48;96280.81;5111130;27;20044;-74
2023/07/22 04:00:14;;;;;;;4.95;3.30;;;;;;;14.66;84.63;96288.00;5092067;28;20126;-74
2023/07/22 04:02:40;;;;;;;5.18;3.50;;;;;;;14.67;84.21;96286.88;5101749;27;20104;-74
2023/07/22 04:05:08;;;;;;;4.97;3.42;;;;;;;14.64;84.17;96284.81;5113187;27;20040;-74
2023/07/22 04:07:35;;;;;;;5.30;3.30;;;;;;;14.66;84.44;96290.72;5114240;27;20039;-74
2023/07/22 04:10:02;;;;;;;5.28;3.60;;;;;;;14.66;84.58;96285.25;5113452;27;20050;-74
2023/07/22 04:12:29;;;;;;;5.53;3.38;;;;;;;14.69;84.93;96300.22;5112070;27;20450;-74
2023/07/22 04:14:57;;;;;;;5.75;3.13;;;;;;;14.75;85.22;96287.88;5094340;28;20040;-74
2023/07/22 04:17:24;;;;;;;7.13;3.67;;;;;;;14.74;84.84;96287.06;5092633;28;20454;-74
2023/07/22 04:19:52;;;;;;;6.60;2.83;;;;;;;14.77;85.06;96280.91;5093139;28;20044;-74
2023/07/22 04:22:19;;;;;;;5.05;3.03;;;;;;;14.84;85.07;96288.53;5097917;27;20043;-74
2023/07/22 04:24:48;;;;;;;5.15;3.03;;;;;;;14.83;84.97;96295.16;5114632;27;20044;-74
2023/07/22 04:27:14;;;;;;;4.18;3.00;;;;;;;14.70;84.97;96297.13;5112175;27;20054;-75
2023/07/22 04:29:41;;;;;;;4.43;2.85;;;;;;;14.77;85.02;96297.34;5093829;28;20044;-74
2023/07/22 04:32:09;;;;;;;4.60;2.88;;;;;;;14.81;85.12;96302.94;5093268;28;20055;-74
2023/07/22 04:34:36;;;;;;;4.65;3.15;;;;;;;14.82;84.96;96299.81;5094251;28;20040;-74
2023/07/22 04:37:03;;;;;;;6.10;3.45;;;;;;;14.82;84.54;96296.28;5098150;27;20044;-74
2023/07/22 04:39:30;;;;;;;7.07;3.30;;;;;;;14.81;84.89;96300.19;5090426;28;20051;-73
2023/07/22 04:41:56;;;;;;;5.10;3.20;;;;;;;14.82;84.69;96299.03;5096915;28;20050;-73
2023/07/22 04:44:23;;;;;;;5.10;2.90;;;;;;;14.88;84.92;96301.22;5093119;27;20054;-74
2023/07/22 04:46:50;;;;;;;5.00;3.30;;;;;;;14.88;84.97;96298.47;5097834;28;20411;-74
2023/07/22 04:49:18;;;;;;;4.20;2.80;;;;;;;14.93;85.12;96302.09;5086809;28;20510;-74
2023/07/22 04:51:45;;;;;;;5.05;3.10;;;;;;;15.00;85.43;96305.06;5096212;28;20126;-73
2023/07/22 04:54:12;;;;;;;4.35;2.53;;;;;;;15.07;85.89;96300.56;5086847;28;20503;-73
2023/07/22 04:56:39;;;;;;;10.48;3.60;;;;;;;15.12;85.92;96302.25;5095534;27;20047;-73
2023/07/22 04:59:06;;;;;;;7.72;3.17;;;;;;;15.11;85.35;96300.66;5104262;28;20069;-73
2023/07/22 05:01:32;;;;;;;7.13;3.50;;;;;;;15.21;85.50;96302.13;5092543;28;20052;-74
2023/07/22 05:03:59;;;;;;;6.93;3.83;;;;;;;15.24;85.24;96299.47;5107966;27;20063;-73
2023/07/22 05:06:29;;;;;;;4.53;3.00;;;;;;;15.30;84.95;96287.13;5100837;27;20127;-73
2023/07/22 05:08:55;;;;;;;6.18;3.25;;;;;;;15.36;84.70;96298.63;5090880;27;20755;-73
2023/07/22 05:11:23;;;;;;;5.03;3.17;;;;;;;15.44;84.74;96291.38;5092733;28;20055;-74
2023/07/22 05:13:50;;;;;;;6.60;3.20;;;;;;;15.51;84.53;96283.34;5103838;27;20130;-73
2023/07/22 05:16:16;;;;;;;9.00;4.40;;;;;;;15.53;85.27;96292.03;5103406;27;20051;-73
2023/07/22 05:18:43;;;;;;;7.28;4.05;;;;;;;15.58;86.33;96291.78;5107956;27;20075;-73
2023/07/22 05:21:09;;;;;;;6.18;3.97;;;;;;;15.72;86.35;96297.69;5103824;27;20059;-73
2023/07/22 05:23:37;;;;;;;6.25;3.92;;;;;;;15.75;85.63;96299.69;5102491;27;20515;-73
2023/07/22 05:26:04;;;;;;;7.35;4.80;;;;;;;15.61;85.92;96299.31;5100208;28;20043;-73
2023/07/22 05:28:31;;;;;;;6.00;3.75;;;;;;;15.80;85.55;96299.44;5095433;28;20048;-74
2023/07/22 05:30:58;;;;;;;9.25;4.40;;;;;;;15.75;85.44;96304.41;5103688;28;20062;-73
2023/07/22 05:33:24;;;;;;;4.07;3.40;;;;;;;15.87;85.50;96305.13;5115301;27;20065;-73
2023/07/22 05:35:51;;;;;;;6.65;4.53;;;;;;;15.71;87.09;96309.78;5104947;27;20044;-74
2023/07/22 05:38:18;;;;;;;7.13;3.83;;;;;;;15.76;86.88;96308.72;5112739;27;20676;-74
2023/07/22 05:40:46;;;;;;;6.82;4.60;;;;;;;15.73;87.30;96304.75;5111772;27;20559;-73
2023/07/22 05:43:12;;;;;;;7.65;4.00;;;;;;;15.76;87.32;96315.00;5103403;27;20066;-73
2023/07/22 05:45:39;;;;;;;4.93;3.75;;;;;;;15.91;87.35;96322.47;5103126;27;20063;-73
2023/07/22 05:48:06;;;;;;;6.43;3.92;;;;;;;15.62;87.87;96320.91;5108391;27;20052;-74
2023/07/22 05:50:33;;;;;;;7.32;3.95;;;;;;;15.75;88.26;96320.88;5104000;27;20040;-74
2023/07/22 05:53:00;;;;;;;9.90;4.10;;;;;;;15.93;87.74;96324.09;5109599;27;20050;-73
2023/07/22 05:55:27;;;;;;;5.43;3.38;;;;;;;16.09;87.32;96320.19;5104844;27;20079;-73
2023/07/22 05:57:55;;;;;;;8.85;4.32;;;;;;;16.05;87.71;96321.25;5090604;28;20040;-73
2023/07/22 06:00:22;;;;;;;10.90;4.47;;;;;;;16.14;88.07;96319.94;5090580;28;20579;-73
2023/07/22 06:02:49;;;;;;;7.75;4.43;;;;;;;16.10;89.32;96321.00;5091403;28;20048;-73
2023/07/22 06:05:15;;;;;;;7.93;4.45;;;;;;;16.21;89.00;96313.81;5100163;27;20060;-73
2023/07/22 06:07:42;;;;;;;5.97;4.60;;;;;;;16.25;89.33;96309.22;5108595;27;20050;-74
2023/07/22 06:10:09;;;;;;;9.70;5.25;;;;;;;16.26;89.51;96304.50;5095104;27;20138;-73
2023/07/22 06:12:36;;;;;;;7.85;5.32;;;;;;;16.21;89.65;96310.28;5096674;28;20139;-73
2023/07/22 06:15:05;;;;;;;8.20;5.25;;;;;;;16.15;89.43;96320.72;5090758;28;20048;-74
2023/07/22 06:17:31;;;;;;;6.88;5.05;;;;;;;16.20;90.05;96314.97;5092756;28;20399;-74
2023/07/22 06:19:58;;;;;;;6.05;4.63;;;;;;;16.38;90.28;96316.19;5108723;27;20040;-73
2023/07/22 06:22:25;;;;;;;6.88;4.60;;;;;;;16.54;89.68;96316.16;5095057;28;20052;-73
2023/07/22 06:24:51;;;;;;;7.35;4.70;;;;;;;16.53;86.72;96324.78;5107616;27;20059;-75
2023/07/22 06:27:18;;;;;;;5.32;3.85;;;;;;;16.51;85.47;96316.88;5090608;28;20059;-74
2023/07/22 06:29:44;;;;;;;8.13;4.32;;;;;;;16.60;85.05;96327.69;5091320;28;20051;-73
2023/07/22 06:32:12;;;;;;;6.10;3.78;;;;;;;16.76;85.28;96333.19;5098713;28;20511;-73
2023/07/22 06:34:39;;;;;;;4.93;3.47;;;;;;;16.89;84.61;96326.41;5097278;27;20062;-75
2023/07/22 06:37:06;;;;;;;5.63;3.63;;;;;;;16.80;82.86;96331.31;5098993;27;20044;-73
2023/07/22 06:39:32;;;;;;;9.38;4.55;;;;;;;16.79;82.59;96333.25;5089126;28;20460;-73
2023/07/22 06:41:59;;;;;;;6.93;3.95;;;;;;;16.72;82.17;96327.63;5089004;28;20044;-73
2023/07/22 06:44:25;;;;;;;7.47;3.75;;;;;;;16.94;82.61;96335.19;5089556;28;20047;-74
2023/07/22 06:46:52;;;;;;;6.05;3.53;;;;;;;17.04;81.26;96333.03;5101437;28;20039;-74
2023/07/22 06:49:20;;;;;;;6.78;3.45;;;;;;;17.17;80.65;96329.78;5097481;28;20044;-74
2023/07/22 06:51:46;;;;;;;9.38;3.10;;;;;;;17.15;75.92;96331.28;5097517;28;20063;-74
2023/07/22 06:54:13;;;;;;;4.90;2.63;;;;;;;17.32;75.47;96339.13;5099061;27;20040;-74
2023/07/22 06:56:39;;;;;;;5.15;2.90;;;;;;;17.39;72.97;96342.03;5100222;28;20047;-74
2023/07/22 06:59:06;;;;;;;3.92;2.30;;;;;;;17.51;73.54;96343.03;5104713;27;20047;-74
2023/07/22 07:01:32;;;;;;;4.38;2.80;;;;;;;17.50;71.52;96349.72;5095498;28;20070;-73
2023/07/22 07:03:59;;;;;;;3.25;2.00;;;;;;;17.62;70.00;96341.28;5103002;27;20047;-74
2023/07/22 07:06:27;;;;;;;5.00;2.45;;;;;;;17.57;66.41;96349.84;5097603;27;20661;-73
2023/07/22 07:08:53;;;;;;;6.03;2.40;;;;;;;17.67;67.17;96346.50;5100762;27;20040;-74
2023/07/22 07:11:19;;;;;;;4.20;2.00;;;;;;;17.86;67.39;96345.72;5087873;28;20036;-74
2023/07/22 07:13:46;;;;;;;5.35;2.25;;;;;;;17.97;66.42;96352.22;5088797;28;20044;-74
2023/07/22 07:16:23;;;;;;;3.80;2.30;;;;;;;17.91;65.33;96348.97;5099000;27;20510;-74
2023/07/22 07:18:50;;;;;;;5.80;2.20;;;;;;;18.02;66.06;96342.88;5088603;28;20047;-73
2023/07/22 07:21:17;;;;;;;4.45;2.38;;;;;;;17.91;65.52;96359.19;5096090;28;20067;-73
2023/07/22 07:23:45;;;;;;;5.60;2.22;;;;;;;17.95;66.74;96349.81;5104470;27;20164;-73
2023/07/22 07:26:12;;;;;;;5.85;2.47;;;;;;;18.03;64.03;96355.47;5099974;27;20101;-73
2023/07/22 07:28:39;;;;;;;3.70;2.10;;;;;;;18.16;63.32;96351.34;5103205;28;20048;-73
2023/07/22 07:31:05;;;;;;;3.47;1.90;;;;;;;18.28;62.00;96353.94;5096571;28;20054;-73
2023/07/22 07:33:32;;;;;;;4.85;1.85;;;;;;;18.23;59.95;96354.25;5094510;27;20094;-73
2023/07/22 07:35:58;;;;;;;3.70;1.63;;;;;;;18.28;59.73;96355.91;5092350;28;20176;-74
2023/07/22 07:38:25;;;;;;;5.40;1.98;;;;;;;18.39;58.47;96363.19;5098563;27;20059;-74
2023/07/22 07:40:54;;;;;;;3.42;1.60;;;;;;;18.40;58.72;96359.28;5104589;27;20051;-74
2023/07/22 07:43:20;;;;;;;2.58;1.80;;;;;;;18.39;59.84;96356.88;5101432;28;20164;-74
2023/07/22 07:45:47;;;;;;;4.65;2.08;;;;;;;18.40;60.58;96359.28;5095689;28;20051;-73
2023/07/22 07:48:14;;;;;;;4.30;2.08;;;;;;;18.47;59.90;96353.84;5109817;27;20055;-74
2023/07/22 07:50:40;;;;;;;3.20;2.00;;;;;;;18.61;59.16;96352.50;5093413;28;20050;-74
2023/07/22 07:53:07;;;;;;;3.60;1.75;;;;;;;18.88;59.06;96356.09;5094619;28;20043;-75
2023/07/22 07:55:33;;;;;;;4.85;2.20;;;;;;;18.78;59.16;96360.28;5094010;28;20147;-74
2023/07/22 07:58:01;;;;;;;6.25;2.08;;;;;;;18.96;59.07;96368.84;5094200;28;20054;-74
2023/07/22 08:00:28;;;;;;;3.38;1.80;;;;;;;19.03;57.37;96363.41;5101958;28;20502;-74
2023/07/22 08:02:55;;;;;;;4.07;1.90;;;;;;;19.07;58.92;96358.75;5100485;28;20127;-74
2023/07/22 08:05:21;;;;;;;4.47;1.80;;;;;;;19.18;58.34;96359.69;5114706;27;20052;-74
2023/07/22 08:07:48;;;;;;;2.97;1.90;;;;;;;19.37;59.45;96366.22;5099142;28;20159;-74
2023/07/22 08:10:14;;;;;;;5.03;2.20;;;;;;;19.55;58.90;96354.25;5107307;27;20116;-74
2023/07/22 08:12:41;;;;;;;3.63;1.45;;;;;;;19.67;56.65;96369.81;5088608;28;20058;-74
2023/07/22 08:15:09;;;;;;;4.78;1.75;;;;;;;19.76;57.60;96358.47;5087899;28;20248;-74
2023/07/22 08:17:36;;;;;;;3.55;1.80;;;;;;;20.11;58.58;96365.56;5088156;28;20054;-74
2023/07/22 08:20:04;;;;;;;4.53;2.08;;;;;;;20.22;52.40;96367.25;5092133;27;20047;-75
2023/07/22 08:22:30;;;;;;;3.00;1.58;;;;;;;20.41;54.61;96369.03;5100999;28;20047;-74
2023/07/22 08:24:57;;;;;;;3.90;1.90;;;;;;;20.62;50.83;96362.06;5087927;28;20036;-74
2023/07/22 08:27:24;;;;;;;3.83;2.03;;;;;;;20.79;52.17;96366.97;5095492;28;20051;-74
2023/07/22 08:29:50;;;;;;;2.70;1.80;;;;;;;20.91;51.52;96366.66;5087843;28;20058;-74
2023/07/22 08:32:18;;;;;;;4.93;2.28;;;;;;;20.51;50.93;96357.25;5087012;28;20040;-73
2023/07/22 08:34:44;;;;;;;3.28;1.98;;;;;;;20.47;51.23;96359.22;5096157;28;20072;-73
2023/07/22 08:37:11;;;;;;;2.83;1.88;;;;;;;20.86;50.57;96364.25;5086999;28;20054;-74
2023/07/22 08:39:38;;;;;;;6.82;2.20;;;;;;;21.11;49.30;96367.97;5087484;28;20048;-75
2023/07/22 08:42:05;;;;;;;4.32;1.60;;;;;;;20.88;50.37;96370.22;5087609;27;20048;-75
2023/07/22 08:44:35;;;;;;;3.35;1.77;;;;;;;20.94;50.08;96360.38;5103677;28;20056;-75
2023/07/22 08:47:03;;;;;;;3.75;1.80;;;;;;;20.88;48.51;96359.16;5086609;28;20070;-74
2023/07/22 08:49:32;;;;;;;3.45;1.42;;;;;;;20.95;47.46;96356.41;5095599;27;20044;-73
2023/07/22 08:52:00;;;;;;;2.85;1.80;;;;;;;21.09;47.83;96364.81;5096099;27;20491;-74
2023/07/22 08:54:27;;;;;;;2.58;1.65;;;;;;;21.34;48.25;96359.44;5104166;27;20040;-74
2023/07/22 08:56:54;;;;;;;2.92;1.48;;;;;;;21.48;49.51;96361.47;5099533;28;20052;-73
2023/07/22 08:59:21;;;;;;;3.60;1.67;;;;;;;21.42;47.01;96357.50;5097526;27;20055;-73
2023/07/22 09:01:49;;;;;;;4.20;1.88;;;;;;;21.71;46.15;96360.38;5099713;28;20450;-74
2023/07/22 09:04:15;;;;;;;4.25;1.70;;;;;;;21.65;46.49;96359.19;5097302;28;20044;-74
2023/07/22 09:06:44;;;;;;;3.63;1.58;;;;;;;21.78;48.00;96360.44;5097045;28;20047;-74
2023/07/22 09:09:12;;;;;;;4.65;1.60;;;;;;;21.70;45.94;96358.81;5101884;27;20509;-73
2023/07/22 09:11:39;;;;;;;4.07;1.50;;;;;;;22.00;46.20;96364.06;5092019;28;20079;-73
2023/07/22 09:14:06;;;;;;;3.20;1.60;;;;;;;21.61;45.07;96365.50;5099158;27;20046;-73
2023/07/22 09:16:33;;;;;;;3.20;1.80;;;;;;;21.51;46.04;96363.50;5098953;27;20047;-72
2023/07/22 09:19:00;;;;;;;3.22;1.60;;;;;;;21.45;45.90;96353.16;5090970;28;20051;-73
2023/07/22 09:21:27;;;;;;;3.97;1.30;;;;;;;21.75;46.45;96350.09;5098723;28;21269;-74
2023/07/22 09:23:55;;;;;;;4.22;1.70;;;;;;;22.01;47.20;96347.00;5097016;28;20052;-72
2023/07/22 09:26:22;;;;;;;3.88;1.58;;;;;;;22.21;46.40;96344.72;5100112;28;20051;-73
2023/07/22 09:28:52;;;;;;;2.72;1.40;;;;;;;22.40;44.50;96344.34;5111310;28;20051;-72
2023/07/22 09:31:19;;;;;;;3.65;1.75;;;;;;;22.55;44.89;96336.81;5100158;27;20538;-72
2023/07/22 09:33:46;;;;;;;2.00;1.30;;;;;;;22.39;44.36;96350.25;5104716;27;20502;-72
2023/07/22 09:36:13;;;;;;;4.75;1.40;;;;;;;22.20;43.88;96336.78;5110523;27;20047;-72
2023/07/22 09:38:40;;;;;;;2.08;1.40;;;;;;;22.04;43.65;96343.47;5098463;28;20477;-73
2023/07/22 09:41:08;;;;;;;3.97;1.52;;;;;;;22.19;44.77;96341.56;5103877;27;20044;-73
2023/07/22 09:43:38;;;;;;;3.65;1.63;;;;;;;22.31;44.91;96349.47;5109428;28;20047;-73
2023/07/22 09:46:09;;;;;;;2.17;1.42;;;;;;;22.45;44.27;96345.94;5110856;27;20054;-73
2023/07/22 09:48:44;;;;;;;2.85;1.60;;;;;;;22.36;44.39;96339.97;5111854;27;20100;-73
2023/07/22 09:51:16;;;;;;;1.92;1.40;;;;;;;22.17;44.01;96337.56;5101712;27;20082;-72
2023/07/22 09:53:47;;;;;;;2.22;1.20;;;;;;;22.14;43.29;96342.72;5103965;27;20040;-73
2023/07/22 09:56:14;;;;;;;2.30;1.42;;;;;;;21.84;43.46;96331.13;5101267;27;20162;-73
2023/07/22 09:58:41;;;;;;;4.20;1.40;;;;;;;22.21;44.67;96330.06;5112652;27;20047;-72
2023/07/22 10:01:09;;;;;;;4.60;1.58;;;;;;;22.07;41.93;96334.34;5101035;27;20059;-73
2023/07/22 10:03:39;;;;;;;1.83;1.30;;;;;;;21.87;43.99;96330.34;5104631;27;20047;-72
2023/07/22 10:06:06;;;;;;;2.30;1.42;;;;;;;21.75;43.72;96333.47;5111309;27;20134;-72
2023/07/22 10:08:35;;;;;;;2.60;1.60;;;;;;;21.48;44.82;96333.78;5112533;27;20050;-73
2023/07/22 10:11:06;;;;;;;7.05;1.67;;;;;;;21.72;45.76;96323.19;5110387;27;20101;-74
2023/07/22 10:13:34;;;;;;;2.83;1.60;;;;;;;21.95;44.79;96320.88;5103847;27;20054;-74
2023/07/22 10:16:02;;;;;;;2.53;1.30;;;;;;;22.06;43.63;96320.88;5099215;28;20043;-73
2023/07/22 10:18:29;;;;;;;3.45;1.45;;;;;;;22.21;43.72;96325.28;5106304;28;20553;-73
2023/07/22 10:20:56;;;;;;;2.15;1.40;;;;;;;22.44;41.95;96308.25;5108660;27;20131;-73
2023/07/22 10:23:26;;;;;;;4.32;1.45;;;;;;;22.72;42.19;96306.69;5105169;28;20071;-74
2023/07/22 10:25:53;;;;;;;4.70;2.55;;;;;;;22.80;41.25;96319.34;5097530;28;20044;-74
2023/07/22 10:28:23;;;;;;;2.92;1.30;;;;;;;22.99;39.77;96315.38;5112648;27;20039;-74
2023/07/22 10:30:52;;;;;;;1.60;1.13;;;;;;;22.74;39.30;96309.84;5102060;28;20044;-73
2023/07/22 10:33:19;;;;;;;3.00;1.25;;;;;;;22.94;40.29;96313.81;5105060;28;20518;-73
2023/07/22 10:36:04;;;;;;;4.32;1.30;;;;;;;23.17;39.64;96300.25;5111593;28;20070;-74
2023/07/22 10:38:32;;;;;;;2.10;1.40;;;;;;;23.26;40.39;96296.25;5103142;28;20514;-73
2023/07/22 10:40:59;;;;;;;3.17;1.60;;;;;;;23.25;38.33;96303.00;5109130;27;20452;-74
2023/07/22 10:43:27;;;;;;;2.88;1.70;;;;;;;23.34;38.85;96308.94;5104779;27;20039;-73
2023/07/22 10:45:58;;;;;;;2.20;1.40;;;;;;;23.11;37.52;96299.06;5110593;27;20043;-73
2023/07/22 10:48:28;;;;;;;2.15;1.50;;;;;;;22.89;39.91;96300.31;5094811;27;20044;-73
2023/07/22 10:51:05;;;;;;;3.42;1.60;;;;;;;22.90;39.94;96304.69;5100781;27;20043;-74
2023/07/22 10:53:32;;;;;;;2.72;1.48;;;;;;;22.59;39.71;96307.06;5099634;28;20091;-73
2023/07/22 10:56:13;;;;;;;2.95;1.60;;;;;;;23.19;40.33;96291.53;5104507;28;20411;-73
2023/07/22 10:59:02;;;;;;;5.32;1.60;;;;;;;23.60;40.91;96294.53;5098244;28;20819;-73
2023/07/22 11:01:46;;;;;;;3.05;1.52;;;;;;;23.37;40.48;96286.69;5094566;28;20040;-74
2023/07/22 11:04:22;;;;;;;2.78;1.65;;;;;;;23.09;40.94;96284.81;5090758;28;20519;-73
2023/07/22 11:06:56;;;;;;;2.33;1.30;;;;;;;23.06;42.29;96288.38;5096318;28;20135;-73
2023/07/22 11:09:43;;;;;;;4.53;1.65;;;;;;;22.70;40.40;96289.59;5098744;27;20044;-73
2023/07/22 11:12:15;;;;;;;8.65;2.40;;;;;;;22.62;42.15;96284.06;5099401;27;20097;-73
2023/07/22 11:14:47;;;;;;;3.35;1.30;;;;;;;22.67;40.79;96278.13;5091797;28;20048;-73
2023/07/22 11:17:15;;;;;;;3.75;1.50;;;;;;;23.42;42.08;96285.47;5098816;28;20043;-73
2023/07/22 11:19:42;;;;;;;8.65;4.15;;;;;;;23.64;40.57;96273.09;5096362;28;20048;-73
2023/07/22 11:22:09;;;;;;;5.07;1.48;;;;;;;23.64;39.73;96278.66;5096109;27;20059;-73
2023/07/22 11:24:36;;;;;;;3.47;1.40;;;;;;;23.28;40.52;96271.63;5106819;27;20051;-72
2023/07/22 11:27:04;;;;;;;4.72;1.55;;;;;;;23.41;40.85;96264.44;5100666;27;20044;-74
2023/07/22 11:29:31;;;;;;;3.22;1.50;;;;;;;23.59;39.61;96256.81;5099381;28;20039;-72
2023/07/22 11:31:58;;;;;;;2.70;1.77;;;;;;;23.56;40.84;96254.84;5094918;28;20063;-73
2023/07/22 11:34:26;;;;;;;3.60;1.58;;;;;;;23.49;40.76;96260.44;5096381;27;20139;-73
2023/07/22 11:36:54;;;;;;;3.30;1.63;;;;;;;23.66;39.49;96253.25;5097313;27;20103;-73